Time;durP1;ratioP1;P1;durP2;ratioP2;P2;SDS_P1;SDS_P2;PMS_P1;PMS_P2;Temp;Humidity;BMP_temperature;BMP_pressure;BME280_temperature;BME280_humidity;BME280_pressure;Samples;Min_cycle;Max_cycle;Signal;HPM_P1;HPM_P2
2022/10/06 00:01:07;;;;;;;7.30;1.45;;;;;;;;;;7377042;19;20101;-80
2022/10/06 00:03:32;;;;;;;8.82;1.60;;;;;;;;;;7379410;19;20015;-83
2022/10/06 00:05:59;;;;;;;9.38;1.60;;;;;;;;;;7374443;19;20098;-79
2022/10/06 00:08:24;;;;;;;9.77;1.50;;;;;;;;;;7369338;19;20014;-83
2022/10/06 00:10:53;;;;;;;9.10;1.57;;;;;;;;;;7383094;19;19999;-82
2022/10/06 00:13:19;;;;;;;7.38;1.42;;;;;;;;;;7379929;19;20600;-79
2022/10/06 00:15:44;;;;;;;11.88;1.83;;;;;;;;;;7382226;19;20010;-80
2022/10/06 00:18:09;;;;;;;9.57;1.30;;;;;;;;;;7348744;19;20366;-79
2022/10/06 00:20:34;;;;;;;7.82;1.58;;;;;;;;;;7371948;19;20264;-83
2022/10/06 00:23:00;;;;;;;7.95;1.48;;;;;;;;;;7380215;19;20533;-80
2022/10/06 00:25:27;;;;;;;13.03;2.00;;;;;;;;;;7380189;19;19995;-82
2022/10/06 00:27:52;;;;;;;8.43;1.80;;;;;;;;;;7376662;19;20022;-79
2022/10/06 00:30:19;;;;;;;13.15;2.15;;;;;;;;;;7382310;19;19998;-80
2022/10/06 00:32:52;;;;;;;12.10;2.00;;;;;;;;;;7378289;19;20015;-82
2022/10/06 00:35:18;;;;;;;13.10;2.57;;;;;;;;;;7380107;19;20003;-82
2022/10/06 00:37:43;;;;;;;11.18;2.15;;;;;;;;;;7382375;19;20020;-79
2022/10/06 00:40:09;;;;;;;15.57;2.30;;;;;;;;;;7380541;19;20836;-79
2022/10/06 00:42:46;;;;;;;12.23;2.22;;;;;;;;;;7373556;19;21047;-79
2022/10/06 00:45:12;;;;;;;8.57;1.52;;;;;;;;;;7366733;19;20463;-80
2022/10/06 00:47:37;;;;;;;10.80;2.20;;;;;;;;;;7352941;19;20017;-81
2022/10/06 00:50:03;;;;;;;9.27;2.03;;;;;;;;;;7377184;19;20012;-79
2022/10/06 00:52:29;;;;;;;11.20;2.58;;;;;;;;;;7370425;19;20070;-82
2022/10/06 00:54:56;;;;;;;12.52;2.38;;;;;;;;;;7379259;19;20503;-79
2022/10/06 00:57:21;;;;;;;12.05;1.95;;;;;;;;;;7379550;19;20340;-79
2022/10/06 00:59:46;;;;;;;11.38;2.40;;;;;;;;;;7370865;19;19999;-81
2022/10/06 01:02:14;;;;;;;10.32;2.22;;;;;;;;;;7379241;19;20471;-80
2022/10/06 01:04:43;;;;;;;11.45;2.20;;;;;;;;;;7374691;19;20482;-78
2022/10/06 01:07:09;;;;;;;14.20;2.30;;;;;;;;;;7376031;19;20489;-82
2022/10/06 01:09:34;;;;;;;13.73;3.00;;;;;;;;;;7378058;19;19998;-79
2022/10/06 01:12:01;;;;;;;8.88;2.67;;;;;;;;;;7375615;19;20044;-80
2022/10/06 01:14:27;;;;;;;13.02;2.83;;;;;;;;;;7377994;19;20348;-79
2022/10/06 01:16:55;;;;;;;12.95;2.55;;;;;;;;;;7379724;19;20002;-79
2022/10/06 01:19:39;;;;;;;11.13;2.65;;;;;;;;;;7364193;19;20006;-80
2022/10/06 01:22:05;;;;;;;9.07;2.22;;;;;;;;;;7374644;19;20052;-79
2022/10/06 01:24:30;;;;;;;14.88;2.75;;;;;;;;;;7376950;19;19995;-79
2022/10/06 01:26:56;;;;;;;13.95;2.50;;;;;;;;;;7379926;19;20010;-80
2022/10/06 01:29:21;;;;;;;15.45;2.55;;;;;;;;;;7375849;19;20396;-82
2022/10/06 01:31:46;;;;;;;15.13;2.90;;;;;;;;;;7379366;19;20006;-80
2022/10/06 01:34:12;;;;;;;12.50;2.13;;;;;;;;;;7374812;19;19999;-81
2022/10/06 01:36:38;;;;;;;13.35;2.42;;;;;;;;;;7376971;19;20461;-79
2022/10/06 01:39:03;;;;;;;14.80;2.92;;;;;;;;;;7372231;19;20041;-78
2022/10/06 01:41:32;;;;;;;17.92;3.00;;;;;;;;;;7380204;19;20537;-78
2022/10/06 01:43:57;;;;;;;15.73;2.72;;;;;;;;;;7376354;19;20465;-78
2022/10/06 01:46:22;;;;;;;18.27;2.80;;;;;;;;;;7367309;19;20010;-82
2022/10/06 01:48:47;;;;;;;15.55;2.40;;;;;;;;;;7375584;19;19995;-81
2022/10/06 01:51:14;;;;;;;14.27;2.67;;;;;;;;;;7377195;19;20023;-79
2022/10/06 01:53:40;;;;;;;11.70;2.42;;;;;;;;;;7377810;19;20014;-79
2022/10/06 01:56:05;;;;;;;12.05;2.70;;;;;;;;;;7374582;19;20281;-80
2022/10/06 01:58:30;;;;;;;15.40;2.53;;;;;;;;;;7376756;19;20657;-80
2022/10/06 02:00:55;;;;;;;20.35;3.70;;;;;;;;;;7379258;19;20033;-79
2022/10/06 02:03:21;;;;;;;15.93;2.60;;;;;;;;;;7367149;19;20604;-79
2022/10/06 02:05:46;;;;;;;20.05;3.20;;;;;;;;;;7369858;19;20795;-78
2022/10/06 02:08:11;;;;;;;17.38;3.22;;;;;;;;;;7376378;19;20593;-80
2022/10/06 02:10:36;;;;;;;18.40;2.97;;;;;;;;;;7376199;19;20498;-78
2022/10/06 02:13:01;;;;;;;16.73;2.93;;;;;;;;;;7376178;19;20256;-82
2022/10/06 02:15:27;;;;;;;14.87;3.17;;;;;;;;;;7371817;19;20959;-79
2022/10/06 02:17:53;;;;;;;18.75;3.42;;;;;;;;;;7368803;19;20247;-79
2022/10/06 02:20:19;;;;;;;17.83;3.00;;;;;;;;;;7376873;19;20074;-79
2022/10/06 02:22:44;;;;;;;19.13;3.55;;;;;;;;;;7379724;19;20360;-82
2022/10/06 02:25:10;;;;;;;19.02;3.00;;;;;;;;;;7368573;19;20025;-79
2022/10/06 02:27:36;;;;;;;12.05;2.67;;;;;;;;;;7373936;19;20010;-79
2022/10/06 02:30:01;;;;;;;13.05;3.13;;;;;;;;;;7366192;19;20013;-80
2022/10/06 02:32:37;;;;;;;20.08;4.00;;;;;;;;;;7361219;19;20094;-78
2022/10/06 02:35:03;;;;;;;18.45;2.88;;;;;;;;;;7357386;19;20013;-80
2022/10/06 02:37:29;;;;;;;16.85;3.05;;;;;;;;;;7357592;19;20474;-82
2022/10/06 02:39:54;;;;;;;20.33;3.15;;;;;;;;;;7358815;19;20025;-83
2022/10/06 02:42:19;;;;;;;18.87;3.27;;;;;;;;;;7349006;19;20015;-82
2022/10/06 02:44:45;;;;;;;14.07;2.70;;;;;;;;;;7368752;19;20247;-79
2022/10/06 02:47:13;;;;;;;19.45;3.10;;;;;;;;;;7375938;19;20014;-79
2022/10/06 02:49:38;;;;;;;24.90;3.65;;;;;;;;;;7372767;19;20023;-81
2022/10/06 02:52:03;;;;;;;15.97;3.33;;;;;;;;;;7377342;19;19995;-80
2022/10/06 02:54:28;;;;;;;19.63;2.77;;;;;;;;;;7376278;19;20347;-79
2022/10/06 02:56:53;;;;;;;18.60;3.40;;;;;;;;;;7349772;19;20251;-82
2022/10/06 02:59:19;;;;;;;18.88;3.15;;;;;;;;;;7364142;19;20754;-82
2022/10/06 03:01:44;;;;;;;21.83;3.17;;;;;;;;;;7362960;19;20517;-79
2022/10/06 03:04:10;;;;;;;13.97;2.53;;;;;;;;;;7363257;19;19995;-79
2022/10/06 03:06:36;;;;;;;18.92;3.00;;;;;;;;;;7373428;19;20243;-80
2022/10/06 03:09:06;;;;;;;18.17;3.67;;;;;;;;;;7369106;19;19999;-79
2022/10/06 03:11:38;;;;;;;15.13;2.78;;;;;;;;;;7375175;19;20252;-79
2022/10/06 03:14:04;;;;;;;29.02;3.60;;;;;;;;;;7369065;19;20473;-79
2022/10/06 03:16:30;;;;;;;22.70;3.25;;;;;;;;;;7377349;19;20011;-79
2022/10/06 03:18:56;;;;;;;14.55;2.83;;;;;;;;;;7362565;19;20030;-81
2022/10/06 03:21:22;;;;;;;21.73;3.63;;;;;;;;;;7380739;19;20042;-79
2022/10/06 03:23:49;;;;;;;16.50;3.35;;;;;;;;;;7382344;19;20003;-79
2022/10/06 03:26:16;;;;;;;16.75;2.97;;;;;;;;;;7379478;19;20014;-78
2022/10/06 03:28:41;;;;;;;23.70;3.15;;;;;;;;;;7355441;19;20010;-82
2022/10/06 03:31:07;;;;;;;15.07;2.72;;;;;;;;;;7380703;19;20348;-80
2022/10/06 03:33:33;;;;;;;20.23;3.08;;;;;;;;;;7376797;19;20021;-79
2022/10/06 03:36:15;;;;;;;17.67;3.10;;;;;;;;;;7382951;19;20006;-79
2022/10/06 03:38:41;;;;;;;16.90;2.80;;;;;;;;;;7383465;19;20047;-79
2022/10/06 03:41:11;;;;;;;21.27;3.60;;;;;;;;;;7382471;19;20003;-79
2022/10/06 03:43:36;;;;;;;20.77;3.22;;;;;;;;;;7376741;19;20010;-80
2022/10/06 03:46:02;;;;;;;21.38;2.92;;;;;;;;;;7380487;19;20715;-81
2022/10/06 03:48:28;;;;;;;19.10;3.03;;;;;;;;;;7380442;19;20582;-80
2022/10/06 03:50:54;;;;;;;15.73;2.90;;;;;;;;;;7377392;19;20518;-79
2022/10/06 03:53:24;;;;;;;16.08;3.20;;;;;;;;;;7383232;19;20019;-78
2022/10/06 03:55:49;;;;;;;14.25;3.20;;;;;;;;;;7369563;19;20031;-81
2022/10/06 03:58:16;;;;;;;13.48;2.58;;;;;;;;;;7380933;19;20010;-80
2022/10/06 04:00:41;;;;;;;16.48;2.72;;;;;;;;;;7378671;19;20007;-79
2022/10/06 04:03:06;;;;;;;12.53;2.70;;;;;;;;;;7379790;19;20021;-80
2022/10/06 04:05:31;;;;;;;12.80;2.72;;;;;;;;;;7375467;19;20590;-80
2022/10/06 04:07:56;;;;;;;15.13;2.63;;;;;;;;;;7382140;19;20423;-81
2022/10/06 04:10:22;;;;;;;17.60;3.28;;;;;;;;;;7364782;19;20323;-81
2022/10/06 04:12:47;;;;;;;15.00;2.83;;;;;;;;;;7380018;19;20013;-79
2022/10/06 04:15:13;;;;;;;15.18;3.10;;;;;;;;;;7367261;19;20940;-78
2022/10/06 04:17:38;;;;;;;17.23;3.58;;;;;;;;;;7362038;19;20407;-79
2022/10/06 04:20:04;;;;;;;14.53;2.80;;;;;;;;;;7381421;19;20005;-82
2022/10/06 04:22:29;;;;;;;18.92;3.25;;;;;;;;;;7374369;19;20268;-79
2022/10/06 04:24:54;;;;;;;13.67;2.87;;;;;;;;;;7380711;19;20086;-80
2022/10/06 04:27:28;;;;;;;14.43;3.10;;;;;;;;;;7376659;19;21084;-79
2022/10/06 04:29:55;;;;;;;14.07;3.05;;;;;;;;;;7373437;19;20755;-78
2022/10/06 04:32:20;;;;;;;14.20;2.85;;;;;;;;;;7378979;19;20011;-78
2022/10/06 04:34:45;;;;;;;17.30;3.17;;;;;;;;;;7375825;19;20733;-81
2022/10/06 04:37:10;;;;;;;17.73;2.95;;;;;;;;;;7381625;19;20558;-78
2022/10/06 04:39:36;;;;;;;19.33;3.93;;;;;;;;;;7381511;19;20001;-79
2022/10/06 04:42:02;;;;;;;21.73;3.83;;;;;;;;;;7377267;19;20596;-78
2022/10/06 04:44:27;;;;;;;18.05;3.10;;;;;;;;;;7380545;19;20003;-78
2022/10/06 04:46:52;;;;;;;14.02;2.95;;;;;;;;;;7374216;19;20015;-80
2022/10/06 04:49:17;;;;;;;15.77;3.20;;;;;;;;;;7369621;19;20003;-81
2022/10/06 04:51:43;;;;;;;18.67;3.20;;;;;;;;;;7380231;19;20263;-78
2022/10/06 04:54:09;;;;;;;17.98;3.35;;;;;;;;;;7375044;19;20492;-79
2022/10/06 04:56:34;;;;;;;18.63;3.63;;;;;;;;;;7377871;19;20019;-78
2022/10/06 04:58:59;;;;;;;21.00;3.42;;;;;;;;;;7382366;19;20022;-77
2022/10/06 05:01:26;;;;;;;22.13;4.32;;;;;;;;;;7370989;19;20012;-77
2022/10/06 05:03:53;;;;;;;23.77;3.67;;;;;;;;;;7376727;19;20680;-78
2022/10/06 05:06:19;;;;;;;15.10;2.90;;;;;;;;;;7374914;19;20646;-78
2022/10/06 05:08:48;;;;;;;21.20;4.03;;;;;;;;;;7378272;19;20007;-79
2022/10/06 05:11:13;;;;;;;17.10;3.58;;;;;;;;;;7371699;19;20042;-79
2022/10/06 05:13:38;;;;;;;18.95;3.72;;;;;;;;;;7380085;19;20356;-78
2022/10/06 05:16:05;;;;;;;17.92;3.70;;;;;;;;;;7379325;19;20011;-79
2022/10/06 05:18:30;;;;;;;21.23;3.40;;;;;;;;;;7378888;19;20018;-78
2022/10/06 05:20:57;;;;;;;20.02;2.97;;;;;;;;;;7372239;19;20092;-77
2022/10/06 05:23:22;;;;;;;20.58;3.38;;;;;;;;;;7378106;19;20007;-77
2022/10/06 05:25:54;;;;;;;22.77;3.60;;;;;;;;;;7379255;19;20346;-78
2022/10/06 05:28:20;;;;;;;17.75;4.10;;;;;;;;;;7376774;19;20018;-80
2022/10/06 05:30:58;;;;;;;18.55;3.42;;;;;;;;;;7342569;19;20022;-78
2022/10/06 05:33:24;;;;;;;18.42;3.25;;;;;;;;;;7372331;19;20743;-81
2022/10/06 05:35:53;;;;;;;19.15;3.97;;;;;;;;;;7372298;19;20118;-83
2022/10/06 05:38:19;;;;;;;16.45;3.33;;;;;;;;;;7376103;19;20070;-80
2022/10/06 05:40:44;;;;;;;25.45;4.72;;;;;;;;;;7369637;19;20011;-78
2022/10/06 05:43:09;;;;;;;16.80;3.20;;;;;;;;;;7378641;19;20039;-79
2022/10/06 05:45:34;;;;;;;21.90;3.63;;;;;;;;;;7377533;19;19998;-80
2022/10/06 05:47:59;;;;;;;21.47;4.03;;;;;;;;;;7376423;19;20977;-79
2022/10/06 05:50:24;;;;;;;19.47;3.77;;;;;;;;;;7375060;19;20234;-80
2022/10/06 05:52:52;;;;;;;16.05;3.08;;;;;;;;;;7377012;19;20263;-79
2022/10/06 05:55:18;;;;;;;18.13;3.53;;;;;;;;;;7372923;19;20826;-79
2022/10/06 05:57:43;;;;;;;13.73;3.20;;;;;;;;;;7378129;19;20031;-80
2022/10/06 06:00:08;;;;;;;17.63;3.28;;;;;;;;;;7361649;19;20247;-80
2022/10/06 06:02:33;;;;;;;22.90;3.20;;;;;;;;;;7372408;19;20347;-81
2022/10/06 06:04:59;;;;;;;24.30;3.93;;;;;;;;;;7370194;19;20002;-81
2022/10/06 06:07:24;;;;;;;23.00;3.87;;;;;;;;;;7376696;19;20243;-80
2022/10/06 06:09:49;;;;;;;21.58;4.07;;;;;;;;;;7374884;19;20235;-81
2022/10/06 06:12:15;;;;;;;19.70;3.30;;;;;;;;;;7370231;19;20240;-82
2022/10/06 06:17:24;;;;;;;17.90;3.08;;;;;;;;;;7376427;19;20502;-82
2022/10/06 06:19:49;;;;;;;19.23;3.78;;;;;;;;;;7361269;19;20010;-81
2022/10/06 06:22:14;;;;;;;23.80;3.33;;;;;;;;;;7371232;19;20010;-81
2022/10/06 06:24:39;;;;;;;18.03;3.70;;;;;;;;;;7372409;19;19999;-81
2022/10/06 06:27:04;;;;;;;14.27;3.45;;;;;;;;;;7363877;19;20697;-81
2022/10/06 06:29:30;;;;;;;17.53;4.30;;;;;;;;;;7374865;19;19995;-81
2022/10/06 06:31:55;;;;;;;13.03;3.73;;;;;;;;;;7370996;19;20352;-81
2022/10/06 06:34:20;;;;;;;17.15;4.03;;;;;;;;;;7356668;19;20346;-80
2022/10/06 06:36:52;;;;;;;17.40;3.65;;;;;;;;;;7379101;19;20062;-80
2022/10/06 06:39:18;;;;;;;15.18;3.75;;;;;;;;;;7349267;19;20022;-81
2022/10/06 06:41:44;;;;;;;19.00;3.95;;;;;;;;;;7352866;19;20038;-80
2022/10/06 06:44:10;;;;;;;15.23;3.47;;;;;;;;;;7372524;19;20006;-80
2022/10/06 06:46:35;;;;;;;16.63;3.92;;;;;;;;;;7353779;19;20571;-82
2022/10/06 06:49:03;;;;;;;17.20;3.50;;;;;;;;;;7361926;19;20003;-80
2022/10/06 06:51:36;;;;;;;18.48;3.65;;;;;;;;;;7370771;19;20032;-80
2022/10/06 06:54:01;;;;;;;26.42;3.65;;;;;;;;;;7364492;19;20003;-80
2022/10/06 06:56:27;;;;;;;22.17;4.57;;;;;;;;;;7373673;19;20616;-80
2022/10/06 06:58:52;;;;;;;22.17;3.35;;;;;;;;;;7377773;19;20003;-80
2022/10/06 07:01:18;;;;;;;15.77;3.47;;;;;;;;;;7368974;19;20014;-81
2022/10/06 07:03:44;;;;;;;21.92;4.38;;;;;;;;;;7374004;19;20830;-80
2022/10/06 07:06:11;;;;;;;18.95;3.72;;;;;;;;;;7375462;19;20023;-80
2022/10/06 07:08:37;;;;;;;19.17;3.80;;;;;;;;;;7365986;19;20025;-80
2022/10/06 07:11:29;;;;;;;42.17;5.90;;;;;;;;;;7372163;19;20003;-81
2022/10/06 07:13:56;;;;;;;18.83;3.75;;;;;;;;;;7371424;19;20017;-82
2022/10/06 07:27:31;;;;;;;15.65;3.95;;;;;;;;;;7367043;19;20018;-80
2022/10/06 07:29:56;;;;;;;16.25;3.20;;;;;;;;;;7376377;19;19990;-80
2022/10/06 07:32:22;;;;;;;24.05;4.57;;;;;;;;;;7375240;19;20015;-81
2022/10/06 07:34:47;;;;;;;19.60;3.85;;;;;;;;;;7370870;19;20323;-80
2022/10/06 07:37:12;;;;;;;19.42;3.88;;;;;;;;;;7376626;19;20009;-81
2022/10/06 07:39:38;;;;;;;17.70;3.67;;;;;;;;;;7377406;19;20002;-80
2022/10/06 07:42:07;;;;;;;26.13;4.33;;;;;;;;;;7376641;19;20042;-81
2022/10/06 07:44:32;;;;;;;21.25;4.00;;;;;;;;;;7372357;19;20275;-80
2022/10/06 07:46:57;;;;;;;23.42;4.95;;;;;;;;;;7370294;19;19999;-80
2022/10/06 07:49:22;;;;;;;18.13;4.43;;;;;;;;;;7369203;19;20388;-80
2022/10/06 07:51:47;;;;;;;24.73;4.40;;;;;;;;;;7373841;19;20252;-81
2022/10/06 07:54:13;;;;;;;21.90;3.67;;;;;;;;;;7376632;19;20009;-80
2022/10/06 07:56:38;;;;;;;18.98;3.80;;;;;;;;;;7371294;19;20623;-80
2022/10/06 07:59:03;;;;;;;19.63;3.63;;;;;;;;;;7368152;19;20007;-80
2022/10/06 08:01:29;;;;;;;17.98;3.50;;;;;;;;;;7371541;19;20750;-80
2022/10/06 08:03:54;;;;;;;25.23;4.53;;;;;;;;;;7377976;19;20019;-81
2022/10/06 08:06:22;;;;;;;26.10;3.80;;;;;;;;;;7375750;19;19991;-80
2022/10/06 08:08:48;;;;;;;21.05;3.72;;;;;;;;;;7382672;19;20424;-80
2022/10/06 08:11:14;;;;;;;23.70;4.22;;;;;;;;;;7381252;19;20070;-81
2022/10/06 08:13:43;;;;;;;21.45;4.28;;;;;;;;;;7382830;19;20010;-82
2022/10/06 08:16:12;;;;;;;20.20;4.22;;;;;;;;;;7380142;19;20005;-80
2022/10/06 08:18:37;;;;;;;21.23;4.15;;;;;;;;;;7376620;19;20018;-79
2022/10/06 08:21:10;;;;;;;22.42;3.83;;;;;;;;;;7383893;19;20451;-80
2022/10/06 08:23:39;;;;;;;18.08;3.60;;;;;;;;;;7383001;19;20394;-81
2022/10/06 08:26:04;;;;;;;21.98;4.00;;;;;;;;;;7369879;19;20003;-80
2022/10/06 08:28:31;;;;;;;21.45;4.18;;;;;;;;;;7380385;19;20375;-80
2022/10/06 08:30:56;;;;;;;21.02;3.85;;;;;;;;;;7379541;19;20001;-82
2022/10/06 08:33:21;;;;;;;20.00;4.15;;;;;;;;;;7375318;19;20010;-80
2022/10/06 08:35:46;;;;;;;20.23;3.77;;;;;;;;;;7378883;19;19995;-80
2022/10/06 08:38:13;;;;;;;22.63;4.00;;;;;;;;;;7380197;19;20292;-81
2022/10/06 08:40:40;;;;;;;21.02;3.72;;;;;;;;;;7382445;19;20010;-80
2022/10/06 08:43:12;;;;;;;19.70;4.13;;;;;;;;;;7372631;19;20065;-80
2022/10/06 08:45:41;;;;;;;17.63;4.18;;;;;;;;;;7377315;19;20002;-80
2022/10/06 08:48:12;;;;;;;19.45;3.17;;;;;;;;;;7377536;19;20010;-82
2022/10/06 08:50:44;;;;;;;19.55;3.78;;;;;;;;;;7370897;19;20015;-82
2022/10/06 08:53:30;;;;;;;11.68;2.67;;;;;;;;;;7367450;19;20018;-80
2022/10/06 08:56:02;;;;;;;17.80;2.78;;;;;;;;;;7373880;19;20073;-79
2022/10/06 08:58:45;;;;;;;18.05;3.53;;;;;;;;;;7377493;19;20046;-80
2022/10/06 09:01:18;;;;;;;21.83;3.70;;;;;;;;;;7376223;19;20006;-81
2022/10/06 09:03:47;;;;;;;18.20;3.33;;;;;;;;;;7359509;19;20019;-79
2022/10/06 09:06:16;;;;;;;20.08;3.60;;;;;;;;;;7373425;19;20006;-82
2022/10/06 09:08:51;;;;;;;18.63;3.45;;;;;;;;;;7381803;19;20022;-80
2022/10/06 09:11:26;;;;;;;19.33;3.30;;;;;;;;;;7373291;19;20063;-80
2022/10/06 09:13:54;;;;;;;19.40;3.50;;;;;;;;;;7377944;19;20028;-80
2022/10/06 09:16:26;;;;;;;14.60;3.40;;;;;;;;;;7375352;19;20034;-80
2022/10/06 09:18:56;;;;;;;17.17;3.78;;;;;;;;;;7375229;19;20078;-80
2022/10/06 09:21:35;;;;;;;15.35;2.78;;;;;;;;;;7380286;19;20009;-80
2022/10/06 09:24:05;;;;;;;17.45;3.03;;;;;;;;;;7375988;19;20361;-80
2022/10/06 09:26:32;;;;;;;16.98;3.10;;;;;;;;;;7377601;19;20352;-80
2022/10/06 09:28:57;;;;;;;15.60;2.95;;;;;;;;;;7358709;19;19999;-79
2022/10/06 09:31:24;;;;;;;12.50;2.78;;;;;;;;;;7375032;19;20010;-81
2022/10/06 09:33:52;;;;;;;12.70;2.40;;;;;;;;;;7375102;19;20027;-80
2022/10/06 09:36:18;;;;;;;17.23;2.53;;;;;;;;;;7364608;19;20045;-80
2022/10/06 09:38:53;;;;;;;17.27;2.90;;;;;;;;;;7375681;19;20074;-79
2022/10/06 09:41:21;;;;;;;20.55;3.38;;;;;;;;;;7359738;19;20002;-82
2022/10/06 09:43:54;;;;;;;12.55;2.80;;;;;;;;;;7375884;19;20019;-82
2022/10/06 09:46:27;;;;;;;17.95;3.10;;;;;;;;;;7379381;19;20596;-80
2022/10/06 09:49:06;;;;;;;13.57;3.38;;;;;;;;;;7364251;19;20745;-80
2022/10/06 09:51:34;;;;;;;21.08;3.30;;;;;;;;;;7377843;19;20055;-80
2022/10/06 09:54:04;;;;;;;17.80;3.55;;;;;;;;;;7373000;19;20010;-80
2022/10/06 09:56:31;;;;;;;19.98;3.58;;;;;;;;;;7374494;19;20462;-80
2022/10/06 09:58:57;;;;;;;13.88;3.03;;;;;;;;;;7380206;19;20009;-80
2022/10/06 10:01:27;;;;;;;12.85;2.88;;;;;;;;;;7377525;19;20006;-80
2022/10/06 10:03:54;;;;;;;14.57;2.72;;;;;;;;;;7375424;19;20082;-80
2022/10/06 10:06:28;;;;;;;15.65;3.00;;;;;;;;;;7378048;19;20014;-80
2022/10/06 10:09:12;;;;;;;16.58;3.05;;;;;;;;;;7378408;19;20373;-80
2022/10/06 10:14:21;;;;;;;12.02;3.25;;;;;;;;;;7371563;19;20031;-80
2022/10/06 10:16:47;;;;;;;17.73;2.63;;;;;;;;;;7380172;19;20002;-81
2022/10/06 10:19:23;;;;;;;18.83;3.53;;;;;;;;;;7369446;19;20247;-81
2022/10/06 10:21:49;;;;;;;16.70;2.65;;;;;;;;;;7376566;19;20018;-80
2022/10/06 10:24:22;;;;;;;14.10;3.13;;;;;;;;;;7374889;19;20420;-80
2022/10/06 10:26:52;;;;;;;21.27;3.88;;;;;;;;;;7378484;19;20030;-81
2022/10/06 10:29:36;;;;;;;14.90;3.00;;;;;;;;;;7372984;19;20014;-80
2022/10/06 10:32:01;;;;;;;14.07;2.75;;;;;;;;;;7373348;19;20339;-81
2022/10/06 10:34:45;;;;;;;17.48;3.60;;;;;;;;;;7370352;19;20001;-81
2022/10/06 10:37:23;;;;;;;13.80;2.88;;;;;;;;;;7379081;19;20641;-80
2022/10/06 10:39:57;;;;;;;16.02;2.78;;;;;;;;;;7370927;19;20036;-80
2022/10/06 10:42:28;;;;;;;18.60;2.80;;;;;;;;;;7376061;19;20048;-80
2022/10/06 10:44:55;;;;;;;14.35;2.50;;;;;;;;;;7377998;19;20006;-80
2022/10/06 10:47:36;;;;;;;17.02;2.78;;;;;;;;;;7370983;19;20034;-82
2022/10/06 10:50:25;;;;;;;17.42;2.88;;;;;;;;;;7373731;19;20598;-80
2022/10/06 10:52:52;;;;;;;16.30;2.15;;;;;;;;;;7356753;19;20858;-80
2022/10/06 10:55:18;;;;;;;10.05;2.08;;;;;;;;;;7371116;19;20022;-80
2022/10/06 10:57:44;;;;;;;17.95;2.67;;;;;;;;;;7376249;19;20036;-80
2022/10/06 11:00:16;;;;;;;11.88;1.92;;;;;;;;;;7360814;19;20083;-81
2022/10/06 11:02:41;;;;;;;11.85;2.72;;;;;;;;;;7371842;19;20021;-80
2022/10/06 11:05:19;;;;;;;15.93;2.33;;;;;;;;;;7370346;19;20467;-79
2022/10/06 11:07:47;;;;;;;19.15;2.90;;;;;;;;;;7370451;19;20018;-81
2022/10/06 11:10:15;;;;;;;13.65;2.53;;;;;;;;;;7376899;19;20047;-80
2022/10/06 11:13:00;;;;;;;14.15;2.72;;;;;;;;;;7368202;19;20471;-80
2022/10/06 11:15:35;;;;;;;17.00;2.60;;;;;;;;;;7373804;19;20111;-81
2022/10/06 11:18:24;;;;;;;15.43;2.78;;;;;;;;;;7375478;19;20711;-80
2022/10/06 11:21:00;;;;;;;11.10;2.00;;;;;;;;;;7357440;19;20003;-81
2022/10/06 11:23:34;;;;;;;14.27;2.60;;;;;;;;;;7374588;19;20030;-81
2022/10/06 11:26:03;;;;;;;12.27;2.17;;;;;;;;;;7372301;19;19998;-82
2022/10/06 11:28:50;;;;;;;12.98;2.85;;;;;;;;;;7371759;19;20017;-80
2022/10/06 11:31:21;;;;;;;14.77;2.78;;;;;;;;;;7372434;19;20014;-81
2022/10/06 11:33:49;;;;;;;13.32;2.17;;;;;;;;;;7371903;19;20761;-80
2022/10/06 11:36:18;;;;;;;16.10;2.92;;;;;;;;;;7377936;19;20021;-80
2022/10/06 11:38:46;;;;;;;15.00;2.42;;;;;;;;;;7377355;19;20486;-80
2022/10/06 11:41:14;;;;;;;14.98;2.63;;;;;;;;;;7381323;19;20481;-80
2022/10/06 11:43:44;;;;;;;13.55;2.17;;;;;;;;;;7383648;19;20434;-80
2022/10/06 11:46:10;;;;;;;16.15;2.80;;;;;;;;;;7384152;19;19995;-82
2022/10/06 11:48:35;;;;;;;16.67;2.80;;;;;;;;;;7379538;19;20015;-80
2022/10/06 11:51:16;;;;;;;11.10;2.28;;;;;;;;;;7373057;19;20258;-81
2022/10/06 11:53:41;;;;;;;10.35;2.42;;;;;;;;;;7382580;19;20010;-80
2022/10/06 11:56:16;;;;;;;12.32;2.20;;;;;;;;;;7383674;19;20011;-80
2022/10/06 11:58:50;;;;;;;14.90;2.42;;;;;;;;;;7376777;19;20030;-80
2022/10/06 12:01:33;;;;;;;12.45;2.35;;;;;;;;;;7379635;19;20040;-79
2022/10/06 12:04:08;;;;;;;12.75;2.60;;;;;;;;;;7379114;19;20025;-80
2022/10/06 12:06:42;;;;;;;12.90;2.80;;;;;;;;;;7365603;19;20681;-79
2022/10/06 12:09:22;;;;;;;15.73;2.30;;;;;;;;;;7381037;19;19994;-80
2022/10/06 12:11:49;;;;;;;13.50;2.30;;;;;;;;;;7381160;19;20022;-81
2022/10/06 12:14:34;;;;;;;9.23;1.98;;;;;;;;;;7378072;19;20007;-80
2022/10/06 12:17:22;;;;;;;10.48;2.63;;;;;;;;;;7381674;19;20014;-80
2022/10/06 12:20:06;;;;;;;12.02;2.20;;;;;;;;;;7342549;19;20002;-80
2022/10/06 12:22:31;;;;;;;;;;;;;;;;;;7374967;19;20014;-80
2022/10/06 12:24:56;;;;;;;13.95;2.10;;;;;;;;;;7372805;19;19953;-79
2022/10/06 12:27:27;;;;;;;14.50;2.07;;;;;;;;;;7368683;19;20006;-80
2022/10/06 12:30:04;;;;;;;9.25;1.90;;;;;;;;;;7381843;19;20013;-80
2022/10/06 12:32:45;;;;;;;17.42;2.80;;;;;;;;;;7372986;19;20025;-79
2022/10/06 12:35:15;;;;;;;13.38;2.60;;;;;;;;;;7380604;19;20009;-80
2022/10/06 12:37:45;;;;;;;11.23;1.88;;;;;;;;;;7382791;19;20427;-80
2022/10/06 12:40:29;;;;;;;15.55;2.45;;;;;;;;;;7382441;19;20107;-81
2022/10/06 12:43:08;;;;;;;14.63;2.40;;;;;;;;;;7377003;19;20041;-82
2022/10/06 12:45:33;;;;;;;10.18;2.17;;;;;;;;;;7377844;19;21212;-80
2022/10/06 12:47:59;;;;;;;14.85;2.30;;;;;;;;;;7375527;19;20005;-80
2022/10/06 12:50:25;;;;;;;12.90;2.40;;;;;;;;;;7369168;19;20046;-80
2022/10/06 12:53:14;;;;;;;11.88;2.33;;;;;;;;;;7370547;19;20015;-81
2022/10/06 12:55:42;;;;;;;11.45;2.28;;;;;;;;;;7370189;19;19998;-80
2022/10/06 12:58:17;;;;;;;13.55;2.58;;;;;;;;;;7382094;19;20364;-80
2022/10/06 13:00:43;;;;;;;11.20;1.90;;;;;;;;;;7352154;19;20003;-81
2022/10/06 13:03:22;;;;;;;15.27;1.80;;;;;;;;;;7376724;19;20013;-80
2022/10/06 13:06:02;;;;;;;9.15;1.90;;;;;;;;;;7379482;19;20462;-80
2022/10/06 13:08:34;;;;;;;15.35;2.20;;;;;;;;;;7376565;19;20438;-80
2022/10/06 13:11:10;;;;;;;14.10;1.98;;;;;;;;;;7373853;19;20007;-80
2022/10/06 13:13:36;;;;;;;10.20;1.80;;;;;;;;;;7378104;19;20021;-80
2022/10/06 13:16:02;;;;;;;12.48;2.10;;;;;;;;;;7367398;19;20003;-80
2022/10/06 13:18:27;;;;;;;11.10;2.60;;;;;;;;;;7368576;19;20094;-81
2022/10/06 13:20:54;;;;;;;11.10;2.37;;;;;;;;;;7377405;19;20347;-79
2022/10/06 13:23:19;;;;;;;12.35;2.42;;;;;;;;;;7368103;19;20247;-80
2022/10/06 13:25:46;;;;;;;16.30;2.80;;;;;;;;;;7379353;19;20018;-81
2022/10/06 13:28:30;;;;;;;17.38;2.42;;;;;;;;;;7380874;19;20006;-79
2022/10/06 13:30:55;;;;;;;;;;;;;;;;;;7367262;19;20448;-80
2022/10/06 13:33:21;;;;;;;11.05;2.05;;;;;;;;;;7374804;19;20435;-79
2022/10/06 13:35:48;;;;;;;7.38;1.65;;;;;;;;;;7371255;19;20023;-81
2022/10/06 13:38:14;;;;;;;11.52;1.73;;;;;;;;;;7378474;19;20487;-80
2022/10/06 13:40:39;;;;;;;10.43;2.08;;;;;;;;;;7375376;19;20035;-80
2022/10/06 13:43:04;;;;;;;9.20;2.10;;;;;;;;;;7372486;19;20007;-79
2022/10/06 13:45:30;;;;;;;9.50;1.80;;;;;;;;;;7368884;19;20759;-80
2022/10/06 13:48:02;;;;;;;8.52;1.58;;;;;;;;;;7374056;19;20518;-80
2022/10/06 13:50:28;;;;;;;13.20;1.70;;;;;;;;;;7368691;19;20013;-80
2022/10/06 13:52:54;;;;;;;9.95;1.77;;;;;;;;;;7379611;19;20440;-79
2022/10/06 13:55:23;;;;;;;14.35;2.47;;;;;;;;;;7373322;19;20029;-81
2022/10/06 13:57:48;;;;;;;11.02;1.92;;;;;;;;;;7378706;19;20246;-79
2022/10/06 14:00:14;;;;;;;11.13;2.30;;;;;;;;;;7374942;19;20439;-80
2022/10/06 14:02:46;;;;;;;14.38;2.47;;;;;;;;;;7375665;19;20243;-79
2022/10/06 14:05:20;;;;;;;13.43;1.80;;;;;;;;;;7375545;19;20012;-79
2022/10/06 14:07:46;;;;;;;8.55;1.63;;;;;;;;;;7378063;19;20006;-80
2022/10/06 14:10:15;;;;;;;12.43;1.80;;;;;;;;;;7368606;19;20379;-80
2022/10/06 14:12:44;;;;;;;14.93;2.55;;;;;;;;;;7369548;19;20018;-79
2022/10/06 14:15:17;;;;;;;13.52;2.20;;;;;;;;;;7374003;19;20454;-80
2022/10/06 14:17:42;;;;;;;11.80;2.27;;;;;;;;;;7368957;19;20098;-80
2022/10/06 14:20:26;;;;;;;15.13;2.27;;;;;;;;;;7370990;19;19998;-79
2022/10/06 14:22:51;;;;;;;12.43;2.47;;;;;;;;;;7377064;19;20306;-79
2022/10/06 14:25:18;;;;;;;7.70;1.93;;;;;;;;;;7373948;19;20762;-80
2022/10/06 14:27:43;;;;;;;8.50;1.60;;;;;;;;;;7369033;19;20251;-79
2022/10/06 14:30:09;;;;;;;9.18;1.85;;;;;;;;;;7376061;19;20022;-79
2022/10/06 14:32:37;;;;;;;10.20;1.60;;;;;;;;;;7373455;19;20010;-79
2022/10/06 14:35:02;;;;;;;10.02;2.15;;;;;;;;;;7374757;19;20222;-79
2022/10/06 14:37:27;;;;;;;13.18;2.45;;;;;;;;;;7368973;19;20475;-80
2022/10/06 14:39:54;;;;;;;11.20;1.63;;;;;;;;;;7374416;19;19995;-80
2022/10/06 14:42:23;;;;;;;10.10;2.08;;;;;;;;;;7373163;19;20014;-80
2022/10/06 14:44:48;;;;;;;12.00;2.17;;;;;;;;;;7352022;19;20030;-80
2022/10/06 14:47:13;;;;;;;12.07;2.37;;;;;;;;;;7366109;19;20130;-80
2022/10/06 14:49:39;;;;;;;9.80;1.80;;;;;;;;;;7367455;19;20255;-81
2022/10/06 14:52:05;;;;;;;11.10;1.80;;;;;;;;;;7373647;19;20259;-80
2022/10/06 14:54:32;;;;;;;13.13;1.67;;;;;;;;;;7374974;19;20338;-80